sensor_id;sensor_type;location;lat;lon;timestamp;P1;durP1;ratioP1;P2;durP2;ratioP2
38111;SDS011;64011;56.312;44.048;2024-03-25T00:01:04;47.15;;;23.48;;
38111;SDS011;64011;56.312;44.048;2024-03-25T00:03:04;50.53;;;25.90;;
38111;SDS011;64011;56.312;44.048;2024-03-25T00:05:05;53.50;;;27.40;;
38111;SDS011;64011;56.312;44.048;2024-03-25T00:07:07;58.40;;;29.33;;
38111;SDS011;64011;56.312;44.048;2024-03-25T00:09:08;48.47;;;22.65;;
38111;SDS011;64011;56.312;44.048;2024-03-25T00:11:09;51.67;;;26.23;;
38111;SDS011;64011;56.312;44.048;2024-03-25T00:13:09;55.30;;;27.73;;
38111;SDS011;64011;56.312;44.048;2024-03-25T00:15:11;45.67;;;22.90;;
38111;SDS011;64011;56.312;44.048;2024-03-25T00:17:12;54.78;;;27.10;;
38111;SDS011;64011;56.312;44.048;2024-03-25T00:19:13;56.30;;;29.52;;
38111;SDS011;64011;56.312;44.048;2024-03-25T00:21:14;57.30;;;29.48;;
38111;SDS011;64011;56.312;44.048;2024-03-25T00:23:15;61.67;;;29.45;;
38111;SDS011;64011;56.312;44.048;2024-03-25T00:25:16;59.35;;;28.33;;
38111;SDS011;64011;56.312;44.048;2024-03-25T00:27:16;60.13;;;30.45;;
38111;SDS011;64011;56.312;44.048;2024-03-25T00:29:17;51.83;;;28.48;;
38111;SDS011;64011;56.312;44.048;2024-03-25T00:31:19;54.70;;;27.45;;
38111;SDS011;64011;56.312;44.048;2024-03-25T00:33:20;51.60;;;25.52;;
38111;SDS011;64011;56.312;44.048;2024-03-25T00:35:21;47.55;;;25.05;;
38111;SDS011;64011;56.312;44.048;2024-03-25T00:37:22;52.05;;;26.00;;
38111;SDS011;64011;56.312;44.048;2024-03-25T00:39:23;49.72;;;25.33;;
38111;SDS011;64011;56.312;44.048;2024-03-25T00:41:24;52.75;;;27.25;;
38111;SDS011;64011;56.312;44.048;2024-03-25T00:43:24;49.83;;;25.73;;
38111;SDS011;64011;56.312;44.048;2024-03-25T00:45:25;53.25;;;27.13;;
38111;SDS011;64011;56.312;44.048;2024-03-25T00:47:27;54.50;;;27.70;;
38111;SDS011;64011;56.312;44.048;2024-03-25T00:49:28;50.67;;;24.98;;
38111;SDS011;64011;56.312;44.048;2024-03-25T00:51:29;52.13;;;26.95;;
38111;SDS011;64011;56.312;44.048;2024-03-25T00:53:30;46.17;;;21.60;;
38111;SDS011;64011;56.312;44.048;2024-03-25T00:55:31;48.85;;;23.48;;
38111;SDS011;64011;56.312;44.048;2024-03-25T00:57:31;46.00;;;21.60;;
38111;SDS011;64011;56.312;44.048;2024-03-25T00:59:32;35.38;;;15.80;;
38111;SDS011;64011;56.312;44.048;2024-03-25T01:01:33;50.97;;;27.05;;
38111;SDS011;64011;56.312;44.048;2024-03-25T01:03:35;51.05;;;26.48;;
38111;SDS011;64011;56.312;44.048;2024-03-25T01:05:36;48.42;;;24.17;;
38111;SDS011;64011;56.312;44.048;2024-03-25T01:07:36;57.92;;;27.77;;
38111;SDS011;64011;56.312;44.048;2024-03-25T01:09:37;41.05;;;20.90;;
38111;SDS011;64011;56.312;44.048;2024-03-25T01:11:38;48.30;;;24.20;;
38111;SDS011;64011;56.312;44.048;2024-03-25T01:13:39;43.85;;;22.90;;
38111;SDS011;64011;56.312;44.048;2024-03-25T01:15:39;43.60;;;22.05;;
38111;SDS011;64011;56.312;44.048;2024-03-25T01:17:40;53.40;;;26.40;;
38111;SDS011;64011;56.312;44.048;2024-03-25T01:19:42;49.15;;;24.85;;
38111;SDS011;64011;56.312;44.048;2024-03-25T01:21:43;42.80;;;22.13;;
38111;SDS011;64011;56.312;44.048;2024-03-25T01:23:44;50.42;;;25.23;;
38111;SDS011;64011;56.312;44.048;2024-03-25T01:25:45;50.75;;;25.55;;
38111;SDS011;64011;56.312;44.048;2024-03-25T01:27:45;44.17;;;23.20;;
38111;SDS011;64011;56.312;44.048;2024-03-25T01:29:46;46.20;;;21.58;;
38111;SDS011;64011;56.312;44.048;2024-03-25T01:31:47;47.85;;;26.02;;
38111;SDS011;64011;56.312;44.048;2024-03-25T01:33:48;50.90;;;27.30;;
38111;SDS011;64011;56.312;44.048;2024-03-25T01:35:50;48.15;;;24.55;;
38111;SDS011;64011;56.312;44.048;2024-03-25T01:37:51;45.60;;;21.42;;
38111;SDS011;64011;56.312;44.048;2024-03-25T01:39:51;51.55;;;26.98;;
38111;SDS011;64011;56.312;44.048;2024-03-25T01:41:52;50.47;;;25.58;;
38111;SDS011;64011;56.312;44.048;2024-03-25T01:43:53;39.47;;;19.90;;
38111;SDS011;64011;56.312;44.048;2024-03-25T01:45:54;44.38;;;22.58;;
38111;SDS011;64011;56.312;44.048;2024-03-25T01:47:54;51.47;;;25.42;;
38111;SDS011;64011;56.312;44.048;2024-03-25T01:49:57;48.45;;;25.65;;
38111;SDS011;64011;56.312;44.048;2024-03-25T01:51:59;47.83;;;27.05;;
38111;SDS011;64011;56.312;44.048;2024-03-25T01:54:00;51.03;;;27.70;;
38111;SDS011;64011;56.312;44.048;2024-03-25T01:56:00;51.35;;;23.73;;
38111;SDS011;64011;56.312;44.048;2024-03-25T01:58:02;47.85;;;23.73;;
38111;SDS011;64011;56.312;44.048;2024-03-25T02:00:03;50.47;;;26.90;;
38111;SDS011;64011;56.312;44.048;2024-03-25T02:02:05;48.05;;;25.60;;
38111;SDS011;64011;56.312;44.048;2024-03-25T02:04:06;49.35;;;26.60;;
38111;SDS011;64011;56.312;44.048;2024-03-25T02:06:07;43.92;;;21.20;;
38111;SDS011;64011;56.312;44.048;2024-03-25T02:08:12;46.58;;;23.30;;
38111;SDS011;64011;56.312;44.048;2024-03-25T02:10:13;50.08;;;26.63;;
38111;SDS011;64011;56.312;44.048;2024-03-25T02:12:14;49.17;;;26.10;;
38111;SDS011;64011;56.312;44.048;2024-03-25T02:14:15;50.15;;;23.80;;
38111;SDS011;64011;56.312;44.048;2024-03-25T02:16:16;51.17;;;25.13;;
38111;SDS011;64011;56.312;44.048;2024-03-25T02:18:37;42.70;;;19.27;;
38111;SDS011;64011;56.312;44.048;2024-03-25T02:20:37;47.17;;;22.45;;
38111;SDS011;64011;56.312;44.048;2024-03-25T02:22:38;51.60;;;26.77;;
38111;SDS011;64011;56.312;44.048;2024-03-25T02:24:41;38.15;;;17.70;;
38111;SDS011;64011;56.312;44.048;2024-03-25T02:26:43;44.33;;;23.08;;
38111;SDS011;64011;56.312;44.048;2024-03-25T02:28:44;49.10;;;25.35;;
38111;SDS011;64011;56.312;44.048;2024-03-25T02:30:44;45.92;;;24.83;;
38111;SDS011;64011;56.312;44.048;2024-03-25T02:32:45;36.30;;;17.08;;
38111;SDS011;64011;56.312;44.048;2024-03-25T02:34:47;40.22;;;21.45;;
38111;SDS011;64011;56.312;44.048;2024-03-25T02:36:51;49.65;;;25.48;;
38111;SDS011;64011;56.312;44.048;2024-03-25T02:38:53;44.75;;;24.13;;
38111;SDS011;64011;56.312;44.048;2024-03-25T02:40:53;44.92;;;25.63;;
38111;SDS011;64011;56.312;44.048;2024-03-25T02:42:56;45.22;;;25.65;;
38111;SDS011;64011;56.312;44.048;2024-03-25T02:44:57;45.42;;;25.30;;
38111;SDS011;64011;56.312;44.048;2024-03-25T02:46:59;47.05;;;26.63;;
38111;SDS011;64011;56.312;44.048;2024-03-25T02:49:00;43.60;;;22.95;;
38111;SDS011;64011;56.312;44.048;2024-03-25T02:51:01;49.15;;;26.35;;
38111;SDS011;64011;56.312;44.048;2024-03-25T02:53:01;38.63;;;17.55;;
38111;SDS011;64011;56.312;44.048;2024-03-25T02:55:02;46.75;;;25.45;;
38111;SDS011;64011;56.312;44.048;2024-03-25T02:57:04;41.55;;;22.05;;
38111;SDS011;64011;56.312;44.048;2024-03-25T02:59:06;46.22;;;25.60;;
38111;SDS011;64011;56.312;44.048;2024-03-25T03:01:07;44.45;;;24.52;;
38111;SDS011;64011;56.312;44.048;2024-03-25T03:03:08;48.47;;;26.05;;
38111;SDS011;64011;56.312;44.048;2024-03-25T03:05:09;44.03;;;22.88;;
38111;SDS011;64011;56.312;44.048;2024-03-25T03:07:09;48.08;;;25.75;;
38111;SDS011;64011;56.312;44.048;2024-03-25T03:09:10;45.47;;;24.80;;
38111;SDS011;64011;56.312;44.048;2024-03-25T03:11:11;47.40;;;26.15;;
38111;SDS011;64011;56.312;44.048;2024-03-25T03:13:12;47.22;;;25.83;;
38111;SDS011;64011;56.312;44.048;2024-03-25T03:15:15;42.50;;;24.75;;
38111;SDS011;64011;56.312;44.048;2024-03-25T03:17:16;45.65;;;23.88;;
38111;SDS011;64011;56.312;44.048;2024-03-25T03:19:17;46.65;;;25.83;;
38111;SDS011;64011;56.312;44.048;2024-03-25T03:21:18;46.10;;;24.30;;
38111;SDS011;64011;56.312;44.048;2024-03-25T03:23:18;44.28;;;25.42;;
38111;SDS011;64011;56.312;44.048;2024-03-25T03:25:19;43.50;;;24.10;;
38111;SDS011;64011;56.312;44.048;2024-03-25T03:27:20;41.92;;;23.95;;
38111;SDS011;64011;56.312;44.048;2024-03-25T03:29:21;43.20;;;24.10;;
38111;SDS011;64011;56.312;44.048;2024-03-25T03:31:23;42.55;;;23.85;;
38111;SDS011;64011;56.312;44.048;2024-03-25T03:33:25;43.08;;;23.23;;
38111;SDS011;64011;56.312;44.048;2024-03-25T03:35:26;43.00;;;23.70;;
38111;SDS011;64011;56.312;44.048;2024-03-25T03:37:26;40.28;;;20.67;;
38111;SDS011;64011;56.312;44.048;2024-03-25T03:39:27;28.20;;;12.38;;
38111;SDS011;64011;56.312;44.048;2024-03-25T03:41:28;43.85;;;23.25;;
38111;SDS011;64011;56.312;44.048;2024-03-25T03:43:29;46.72;;;24.23;;
38111;SDS011;64011;56.312;44.048;2024-03-25T03:45:32;40.15;;;22.15;;
38111;SDS011;64011;56.312;44.048;2024-03-25T03:47:35;37.97;;;20.38;;
38111;SDS011;64011;56.312;44.048;2024-03-25T03:49:36;39.80;;;20.13;;
38111;SDS011;64011;56.312;44.048;2024-03-25T03:51:36;36.80;;;18.50;;
38111;SDS011;64011;56.312;44.048;2024-03-25T03:53:37;34.55;;;17.23;;
38111;SDS011;64011;56.312;44.048;2024-03-25T03:55:38;42.42;;;23.60;;
38111;SDS011;64011;56.312;44.048;2024-03-25T03:57:39;41.95;;;22.80;;
38111;SDS011;64011;56.312;44.048;2024-03-25T03:59:39;42.63;;;23.05;;
38111;SDS011;64011;56.312;44.048;2024-03-25T04:01:40;40.55;;;22.80;;
38111;SDS011;64011;56.312;44.048;2024-03-25T04:03:42;41.50;;;23.17;;
38111;SDS011;64011;56.312;44.048;2024-03-25T04:05:43;43.30;;;23.27;;
38111;SDS011;64011;56.312;44.048;2024-03-25T04:07:44;43.00;;;24.05;;
38111;SDS011;64011;56.312;44.048;2024-03-25T04:09:45;38.30;;;20.38;;
38111;SDS011;64011;56.312;44.048;2024-03-25T04:11:46;32.33;;;16.00;;
38111;SDS011;64011;56.312;44.048;2024-03-25T04:13:46;38.63;;;21.17;;
38111;SDS011;64011;56.312;44.048;2024-03-25T04:15:47;36.10;;;17.00;;
38111;SDS011;64011;56.312;44.048;2024-03-25T04:17:48;32.75;;;14.23;;
38111;SDS011;64011;56.312;44.048;2024-03-25T04:19:51;39.10;;;22.38;;
38111;SDS011;64011;56.312;44.048;2024-03-25T04:21:52;32.05;;;16.42;;
38111;SDS011;64011;56.312;44.048;2024-03-25T04:23:53;41.22;;;22.65;;
38111;SDS011;64011;56.312;44.048;2024-03-25T04:25:54;36.78;;;21.30;;
38111;SDS011;64011;56.312;44.048;2024-03-25T04:27:55;39.38;;;22.17;;
38111;SDS011;64011;56.312;44.048;2024-03-25T04:29:56;43.22;;;22.65;;
38111;SDS011;64011;56.312;44.048;2024-03-25T04:31:57;35.40;;;19.08;;
38111;SDS011;64011;56.312;44.048;2024-03-25T04:33:57;37.25;;;19.83;;
38111;SDS011;64011;56.312;44.048;2024-03-25T04:36:00;37.78;;;18.17;;
38111;SDS011;64011;56.312;44.048;2024-03-25T04:38:00;43.97;;;23.20;;
38111;SDS011;64011;56.312;44.048;2024-03-25T04:40:01;39.55;;;21.08;;
38111;SDS011;64011;56.312;44.048;2024-03-25T04:42:07;41.83;;;21.52;;
38111;SDS011;64011;56.312;44.048;2024-03-25T04:44:08;30.55;;;12.88;;
38111;SDS011;64011;56.312;44.048;2024-03-25T04:46:09;38.95;;;19.05;;
38111;SDS011;64011;56.312;44.048;2024-03-25T04:48:10;37.22;;;18.70;;
38111;SDS011;64011;56.312;44.048;2024-03-25T04:50:11;37.97;;;19.08;;
38111;SDS011;64011;56.312;44.048;2024-03-25T04:52:13;38.20;;;20.98;;
38111;SDS011;64011;56.312;44.048;2024-03-25T04:54:15;37.30;;;19.17;;
38111;SDS011;64011;56.312;44.048;2024-03-25T04:56:15;38.85;;;20.13;;
38111;SDS011;64011;56.312;44.048;2024-03-25T04:58:16;43.83;;;22.77;;
38111;SDS011;64011;56.312;44.048;2024-03-25T05:00:17;40.63;;;21.90;;
38111;SDS011;64011;56.312;44.048;2024-03-25T05:02:18;38.33;;;21.50;;
38111;SDS011;64011;56.312;44.048;2024-03-25T05:04:19;37.10;;;20.17;;
38111;SDS011;64011;56.312;44.048;2024-03-25T05:06:20;33.03;;;15.18;;
38111;SDS011;64011;56.312;44.048;2024-03-25T05:08:22;37.00;;;19.27;;
38111;SDS011;64011;56.312;44.048;2024-03-25T05:10:23;35.20;;;18.10;;
38111;SDS011;64011;56.312;44.048;2024-03-25T05:12:23;36.67;;;17.80;;
38111;SDS011;64011;56.312;44.048;2024-03-25T05:14:24;37.78;;;20.65;;
38111;SDS011;64011;56.312;44.048;2024-03-25T05:16:25;41.45;;;19.42;;
38111;SDS011;64011;56.312;44.048;2024-03-25T05:18:26;32.70;;;16.70;;
38111;SDS011;64011;56.312;44.048;2024-03-25T05:20:27;31.90;;;16.38;;
38111;SDS011;64011;56.312;44.048;2024-03-25T05:22:27;32.58;;;16.10;;
38111;SDS011;64011;56.312;44.048;2024-03-25T05:24:30;32.70;;;17.85;;
38111;SDS011;64011;56.312;44.048;2024-03-25T05:26:30;33.40;;;16.60;;
38111;SDS011;64011;56.312;44.048;2024-03-25T05:28:31;33.83;;;14.57;;
38111;SDS011;64011;56.312;44.048;2024-03-25T05:30:32;36.80;;;19.13;;
38111;SDS011;64011;56.312;44.048;2024-03-25T05:32:33;36.75;;;20.23;;
38111;SDS011;64011;56.312;44.048;2024-03-25T05:34:33;31.95;;;16.05;;
38111;SDS011;64011;56.312;44.048;2024-03-25T05:36:34;34.20;;;17.05;;
38111;SDS011;64011;56.312;44.048;2024-03-25T05:38:35;37.45;;;19.17;;
38111;SDS011;64011;56.312;44.048;2024-03-25T05:40:38;34.75;;;19.33;;
38111;SDS011;64011;56.312;44.048;2024-03-25T05:42:38;32.85;;;17.60;;
38111;SDS011;64011;56.312;44.048;2024-03-25T05:44:39;34.65;;;17.67;;
38111;SDS011;64011;56.312;44.048;2024-03-25T05:46:40;32.97;;;18.10;;
38111;SDS011;64011;56.312;44.048;2024-03-25T05:48:40;36.83;;;19.23;;
38111;SDS011;64011;56.312;44.048;2024-03-25T05:50:41;37.42;;;20.27;;
38111;SDS011;64011;56.312;44.048;2024-03-25T05:52:42;31.88;;;16.52;;
38111;SDS011;64011;56.312;44.048;2024-03-25T05:54:43;38.25;;;20.60;;
38111;SDS011;64011;56.312;44.048;2024-03-25T05:56:45;37.92;;;20.30;;
38111;SDS011;64011;56.312;44.048;2024-03-25T05:58:46;38.75;;;20.05;;
38111;SDS011;64011;56.312;44.048;2024-03-25T06:00:47;38.20;;;19.42;;
38111;SDS011;64011;56.312;44.048;2024-03-25T06:02:49;37.92;;;20.30;;
38111;SDS011;64011;56.312;44.048;2024-03-25T06:04:50;35.70;;;19.35;;
38111;SDS011;64011;56.312;44.048;2024-03-25T06:06:50;35.97;;;18.77;;
38111;SDS011;64011;56.312;44.048;2024-03-25T06:08:51;41.10;;;20.35;;
38111;SDS011;64011;56.312;44.048;2024-03-25T06:10:52;34.40;;;15.75;;
38111;SDS011;64011;56.312;44.048;2024-03-25T06:12:55;37.75;;;19.48;;
38111;SDS011;64011;56.312;44.048;2024-03-25T06:14:55;37.10;;;20.40;;
38111;SDS011;64011;56.312;44.048;2024-03-25T06:16:56;35.38;;;18.85;;
38111;SDS011;64011;56.312;44.048;2024-03-25T06:18:57;34.60;;;17.80;;
38111;SDS011;64011;56.312;44.048;2024-03-25T06:20:58;39.38;;;20.88;;
38111;SDS011;64011;56.312;44.048;2024-03-25T06:22:58;41.08;;;21.63;;
38111;SDS011;64011;56.312;44.048;2024-03-25T06:24:59;35.78;;;18.92;;
38111;SDS011;64011;56.312;44.048;2024-03-25T06:27:00;35.88;;;19.65;;
38111;SDS011;64011;56.312;44.048;2024-03-25T06:29:02;37.42;;;20.42;;
38111;SDS011;64011;56.312;44.048;2024-03-25T06:31:03;38.67;;;20.23;;
38111;SDS011;64011;56.312;44.048;2024-03-25T06:33:04;34.42;;;18.38;;
38111;SDS011;64011;56.312;44.048;2024-03-25T06:35:05;33.00;;;15.38;;
38111;SDS011;64011;56.312;44.048;2024-03-25T06:37:06;37.70;;;19.15;;
38111;SDS011;64011;56.312;44.048;2024-03-25T06:39:07;35.03;;;19.88;;
38111;SDS011;64011;56.312;44.048;2024-03-25T06:41:08;34.65;;;17.48;;
38111;SDS011;64011;56.312;44.048;2024-03-25T06:43:08;38.90;;;20.27;;
38111;SDS011;64011;56.312;44.048;2024-03-25T06:45:10;32.95;;;16.55;;
38111;SDS011;64011;56.312;44.048;2024-03-25T06:47:11;35.67;;;19.08;;
38111;SDS011;64011;56.312;44.048;2024-03-25T06:49:12;33.72;;;17.23;;
38111;SDS011;64011;56.312;44.048;2024-03-25T06:51:13;36.80;;;20.27;;
38111;SDS011;64011;56.312;44.048;2024-03-25T06:53:13;38.85;;;20.30;;
38111;SDS011;64011;56.312;44.048;2024-03-25T06:55:14;37.38;;;19.70;;
38111;SDS011;64011;56.312;44.048;2024-03-25T06:57:15;38.33;;;19.88;;
38111;SDS011;64011;56.312;44.048;2024-03-25T06:59:16;37.90;;;19.80;;
38111;SDS011;64011;56.312;44.048;2024-03-25T07:01:18;37.45;;;20.00;;
38111;SDS011;64011;56.312;44.048;2024-03-25T07:03:19;35.83;;;17.80;;
38111;SDS011;64011;56.312;44.048;2024-03-25T07:05:21;38.45;;;20.25;;
38111;SDS011;64011;56.312;44.048;2024-03-25T07:07:21;38.10;;;19.77;;
38111;SDS011;64011;56.312;44.048;2024-03-25T07:09:22;35.97;;;19.27;;
38111;SDS011;64011;56.312;44.048;2024-03-25T07:11:23;35.92;;;19.35;;
38111;SDS011;64011;56.312;44.048;2024-03-25T07:13:24;32.72;;;13.93;;
38111;SDS011;64011;56.312;44.048;2024-03-25T07:15:25;35.58;;;19.20;;
38111;SDS011;64011;56.312;44.048;2024-03-25T07:17:27;36.42;;;18.95;;
38111;SDS011;64011;56.312;44.048;2024-03-25T07:19:28;33.35;;;19.08;;
38111;SDS011;64011;56.312;44.048;2024-03-25T07:21:28;38.05;;;20.23;;
38111;SDS011;64011;56.312;44.048;2024-03-25T07:23:29;37.35;;;18.58;;
38111;SDS011;64011;56.312;44.048;2024-03-25T07:25:30;35.70;;;20.02;;
38111;SDS011;64011;56.312;44.048;2024-03-25T07:27:31;36.00;;;19.45;;
38111;SDS011;64011;56.312;44.048;2024-03-25T07:29:32;33.85;;;18.95;;
38111;SDS011;64011;56.312;44.048;2024-03-25T07:31:32;36.60;;;19.67;;
38111;SDS011;64011;56.312;44.048;2024-03-25T07:33:35;33.35;;;19.17;;
38111;SDS011;64011;56.312;44.048;2024-03-25T07:35:35;28.38;;;14.45;;
38111;SDS011;64011;56.312;44.048;2024-03-25T07:37:36;35.38;;;17.75;;
38111;SDS011;64011;56.312;44.048;2024-03-25T07:39:37;32.55;;;18.40;;
38111;SDS011;64011;56.312;44.048;2024-03-25T07:41:38;36.97;;;19.80;;
38111;SDS011;64011;56.312;44.048;2024-03-25T07:43:38;33.25;;;16.73;;
38111;SDS011;64011;56.312;44.048;2024-03-25T07:45:39;37.53;;;19.65;;
38111;SDS011;64011;56.312;44.048;2024-03-25T07:47:40;40.75;;;21.13;;
38111;SDS011;64011;56.312;44.048;2024-03-25T07:49:42;38.28;;;18.40;;
38111;SDS011;64011;56.312;44.048;2024-03-25T07:51:43;37.28;;;19.13;;
38111;SDS011;64011;56.312;44.048;2024-03-25T07:53:43;39.58;;;19.60;;
38111;SDS011;64011;56.312;44.048;2024-03-25T07:55:44;37.67;;;19.15;;
38111;SDS011;64011;56.312;44.048;2024-03-25T07:57:45;37.97;;;20.23;;
38111;SDS011;64011;56.312;44.048;2024-03-25T07:59:46;40.63;;;21.40;;
38111;SDS011;64011;56.312;44.048;2024-03-25T08:01:47;35.88;;;17.73;;
38111;SDS011;64011;56.312;44.048;2024-03-25T08:03:47;33.22;;;16.60;;
38111;SDS011;64011;56.312;44.048;2024-03-25T08:05:50;31.23;;;15.57;;
38111;SDS011;64011;56.312;44.048;2024-03-25T08:07:51;34.00;;;16.00;;
38111;SDS011;64011;56.312;44.048;2024-03-25T08:09:51;38.60;;;20.70;;
38111;SDS011;64011;56.312;44.048;2024-03-25T08:11:52;37.75;;;18.33;;
38111;SDS011;64011;56.312;44.048;2024-03-25T08:13:53;33.65;;;14.35;;
38111;SDS011;64011;56.312;44.048;2024-03-25T08:15:54;33.90;;;15.20;;
38111;SDS011;64011;56.312;44.048;2024-03-25T08:17:55;35.88;;;19.15;;
38111;SDS011;64011;56.312;44.048;2024-03-25T08:19:55;38.58;;;19.88;;
38111;SDS011;64011;56.312;44.048;2024-03-25T08:21:57;37.38;;;19.10;;
38111;SDS011;64011;56.312;44.048;2024-03-25T08:23:58;31.63;;;15.32;;
38111;SDS011;64011;56.312;44.048;2024-03-25T08:25:59;34.75;;;16.92;;
38111;SDS011;64011;56.312;44.048;2024-03-25T08:28:00;38.88;;;20.25;;
38111;SDS011;64011;56.312;44.048;2024-03-25T08:30:00;38.80;;;18.42;;
38111;SDS011;64011;56.312;44.048;2024-03-25T08:32:02;37.17;;;20.10;;
38111;SDS011;64011;56.312;44.048;2024-03-25T08:34:03;36.25;;;19.08;;
38111;SDS011;64011;56.312;44.048;2024-03-25T08:36:04;38.58;;;19.85;;
38111;SDS011;64011;56.312;44.048;2024-03-25T08:38:07;38.17;;;18.95;;
38111;SDS011;64011;56.312;44.048;2024-03-25T08:40:08;38.28;;;18.55;;
38111;SDS011;64011;56.312;44.048;2024-03-25T08:42:09;37.30;;;19.60;;
38111;SDS011;64011;56.312;44.048;2024-03-25T08:44:10;34.42;;;17.33;;
38111;SDS011;64011;56.312;44.048;2024-03-25T08:46:11;36.75;;;19.58;;
38111;SDS011;64011;56.312;44.048;2024-03-25T08:48:12;38.33;;;20.13;;
38111;SDS011;64011;56.312;44.048;2024-03-25T08:50:13;37.97;;;18.92;;
38111;SDS011;64011;56.312;44.048;2024-03-25T08:52:13;29.27;;;12.93;;
38111;SDS011;64011;56.312;44.048;2024-03-25T08:54:16;33.30;;;16.52;;
38111;SDS011;64011;56.312;44.048;2024-03-25T08:56:16;36.40;;;17.77;;
38111;SDS011;64011;56.312;44.048;2024-03-25T08:58:17;37.60;;;19.70;;
38111;SDS011;64011;56.312;44.048;2024-03-25T09:00:18;37.75;;;19.85;;
38111;SDS011;64011;56.312;44.048;2024-03-25T09:02:19;33.75;;;17.15;;
38111;SDS011;64011;56.312;44.048;2024-03-25T09:04:19;32.92;;;15.18;;
38111;SDS011;64011;56.312;44.048;2024-03-25T09:06:20;39.53;;;20.20;;
38111;SDS011;64011;56.312;44.048;2024-03-25T09:08:21;37.97;;;18.52;;
38111;SDS011;64011;56.312;44.048;2024-03-25T09:10:23;41.58;;;21.08;;
38111;SDS011;64011;56.312;44.048;2024-03-25T09:12:24;43.25;;;20.83;;
38111;SDS011;64011;56.312;44.048;2024-03-25T09:14:25;41.53;;;20.85;;
38111;SDS011;64011;56.312;44.048;2024-03-25T09:16:25;36.55;;;16.83;;
38111;SDS011;64011;56.312;44.048;2024-03-25T09:18:26;35.63;;;18.23;;
38111;SDS011;64011;56.312;44.048;2024-03-25T09:20:28;40.22;;;20.13;;
38111;SDS011;64011;56.312;44.048;2024-03-25T09:22:29;40.60;;;21.27;;
38111;SDS011;64011;56.312;44.048;2024-03-25T09:24:29;41.53;;;21.70;;
38111;SDS011;64011;56.312;44.048;2024-03-25T09:26:32;40.97;;;19.83;;
38111;SDS011;64011;56.312;44.048;2024-03-25T09:28:32;45.17;;;22.88;;
38111;SDS011;64011;56.312;44.048;2024-03-25T09:30:33;42.58;;;21.95;;
38111;SDS011;64011;56.312;44.048;2024-03-25T09:32:34;46.20;;;22.52;;
38111;SDS011;64011;56.312;44.048;2024-03-25T09:34:35;42.13;;;21.42;;
38111;SDS011;64011;56.312;44.048;2024-03-25T09:36:36;40.80;;;21.75;;
38111;SDS011;64011;56.312;44.048;2024-03-25T09:38:36;42.38;;;22.35;;
38111;SDS011;64011;56.312;44.048;2024-03-25T09:40:39;45.28;;;23.67;;
38111;SDS011;64011;56.312;44.048;2024-03-25T09:42:47;42.92;;;21.00;;
38111;SDS011;64011;56.312;44.048;2024-03-25T09:44:48;44.17;;;20.98;;
38111;SDS011;64011;56.312;44.048;2024-03-25T09:46:49;42.88;;;20.85;;
38111;SDS011;64011;56.312;44.048;2024-03-25T09:48:51;44.95;;;22.45;;
38111;SDS011;64011;56.312;44.048;2024-03-25T09:50:53;50.22;;;22.05;;
38111;SDS011;64011;56.312;44.048;2024-03-25T09:52:54;45.42;;;22.38;;
38111;SDS011;64011;56.312;44.048;2024-03-25T09:54:54;48.35;;;22.85;;
38111;SDS011;64011;56.312;44.048;2024-03-25T09:56:55;40.03;;;22.35;;
38111;SDS011;64011;56.312;44.048;2024-03-25T09:58:58;40.25;;;19.67;;
38111;SDS011;64011;56.312;44.048;2024-03-25T10:00:58;41.67;;;21.30;;
38111;SDS011;64011;56.312;44.048;2024-03-25T10:02:59;46.08;;;23.05;;
38111;SDS011;64011;56.312;44.048;2024-03-25T10:05:00;40.55;;;21.75;;
38111;SDS011;64011;56.312;44.048;2024-03-25T10:07:01;43.33;;;21.77;;
38111;SDS011;64011;56.312;44.048;2024-03-25T10:09:04;44.70;;;23.33;;
38111;SDS011;64011;56.312;44.048;2024-03-25T10:11:05;44.00;;;22.83;;
38111;SDS011;64011;56.312;44.048;2024-03-25T10:13:06;44.17;;;23.73;;
38111;SDS011;64011;56.312;44.048;2024-03-25T10:15:08;46.55;;;23.55;;
38111;SDS011;64011;56.312;44.048;2024-03-25T10:17:09;43.95;;;23.63;;
38111;SDS011;64011;56.312;44.048;2024-03-25T10:19:10;41.60;;;22.58;;
38111;SDS011;64011;56.312;44.048;2024-03-25T10:21:11;45.08;;;23.48;;
38111;SDS011;64011;56.312;44.048;2024-03-25T10:23:11;44.60;;;22.73;;
38111;SDS011;64011;56.312;44.048;2024-03-25T10:25:19;45.30;;;24.05;;
38111;SDS011;64011;56.312;44.048;2024-03-25T10:27:22;46.72;;;23.20;;
38111;SDS011;64011;56.312;44.048;2024-03-25T10:29:24;43.72;;;24.73;;
38111;SDS011;64011;56.312;44.048;2024-03-25T10:31:27;44.88;;;23.95;;
38111;SDS011;64011;56.312;44.048;2024-03-25T10:33:28;42.25;;;23.67;;
38111;SDS011;64011;56.312;44.048;2024-03-25T10:35:29;39.63;;;20.42;;
38111;SDS011;64011;56.312;44.048;2024-03-25T10:37:31;41.88;;;22.00;;
38111;SDS011;64011;56.312;44.048;2024-03-25T10:39:32;41.30;;;21.65;;
38111;SDS011;64011;56.312;44.048;2024-03-25T10:41:34;43.00;;;21.00;;
38111;SDS011;64011;56.312;44.048;2024-03-25T10:43:35;42.83;;;20.90;;
38111;SDS011;64011;56.312;44.048;2024-03-25T10:45:37;48.42;;;25.38;;
38111;SDS011;64011;56.312;44.048;2024-03-25T10:47:42;50.95;;;26.75;;
38111;SDS011;64011;56.312;44.048;2024-03-25T10:49:44;44.40;;;25.25;;
38111;SDS011;64011;56.312;44.048;2024-03-25T10:51:47;88.13;;;47.40;;
38111;SDS011;64011;56.312;44.048;2024-03-25T10:53:49;38.30;;;21.95;;
38111;SDS011;64011;56.312;44.048;2024-03-25T10:55:53;40.03;;;21.70;;
38111;SDS011;64011;56.312;44.048;2024-03-25T10:57:54;43.00;;;21.60;;
38111;SDS011;64011;56.312;44.048;2024-03-25T10:59:55;40.13;;;21.77;;
38111;SDS011;64011;56.312;44.048;2024-03-25T11:01:57;41.95;;;22.60;;
38111;SDS011;64011;56.312;44.048;2024-03-25T11:03:59;41.80;;;23.48;;
38111;SDS011;64011;56.312;44.048;2024-03-25T11:06:00;43.35;;;23.30;;
38111;SDS011;64011;56.312;44.048;2024-03-25T11:08:09;42.22;;;23.45;;
38111;SDS011;64011;56.312;44.048;2024-03-25T11:10:10;44.33;;;23.55;;
38111;SDS011;64011;56.312;44.048;2024-03-25T11:12:12;41.70;;;22.70;;
38111;SDS011;64011;56.312;44.048;2024-03-25T11:14:15;44.65;;;23.17;;
38111;SDS011;64011;56.312;44.048;2024-03-25T11:16:25;44.42;;;24.20;;
38111;SDS011;64011;56.312;44.048;2024-03-25T11:18:27;46.85;;;24.40;;
38111;SDS011;64011;56.312;44.048;2024-03-25T11:20:29;43.20;;;24.00;;
38111;SDS011;64011;56.312;44.048;2024-03-25T11:22:30;41.67;;;23.50;;
38111;SDS011;64011;56.312;44.048;2024-03-25T11:24:30;40.60;;;22.73;;
38111;SDS011;64011;56.312;44.048;2024-03-25T11:26:31;46.13;;;23.15;;
38111;SDS011;64011;56.312;44.048;2024-03-25T11:28:32;39.78;;;22.63;;
38111;SDS011;64011;56.312;44.048;2024-03-25T11:30:33;42.22;;;22.42;;
38111;SDS011;64011;56.312;44.048;2024-03-25T11:32:42;56.35;;;31.55;;
38111;SDS011;64011;56.312;44.048;2024-03-25T11:34:49;41.55;;;22.33;;
38111;SDS011;64011;56.312;44.048;2024-03-25T11:36:52;37.22;;;20.13;;
38111;SDS011;64011;56.312;44.048;2024-03-25T11:38:57;37.10;;;19.90;;